createdAt,value
2023-03-02T00:02:10.635Z,31.83
2023-03-02T00:07:34.787Z,32.63
2023-03-02T00:12:58.329Z,33.20
2023-03-02T00:18:20.167Z,33.60
2023-03-02T00:23:42.039Z,34.35
2023-03-02T00:29:04.380Z,35.33
2023-03-02T00:34:26.346Z,34.10
2023-03-02T00:39:48.256Z,36.85
2023-03-02T00:45:10.228Z,34.88
2023-03-02T00:50:32.136Z,34.75
2023-03-02T00:55:54.976Z,33.50
2023-03-02T01:01:18.697Z,34.03
2023-03-02T01:06:40.779Z,35.10
2023-03-02T01:12:02.683Z,33.70
2023-03-02T01:17:24.686Z,32.00
2023-03-02T01:22:46.585Z,34.28
2023-03-02T01:28:08.468Z,33.92
2023-03-02T01:33:31.350Z,34.13
2023-03-02T01:38:53.267Z,34.08
2023-03-02T01:44:40.026Z,35.55
2023-03-02T01:50:16.558Z,38.00
2023-03-02T01:55:39.326Z,36.75
2023-03-02T02:01:01.262Z,38.28
2023-03-02T02:06:35.117Z,36.80
2023-03-02T02:11:57.220Z,37.08
2023-03-02T02:17:19.877Z,36.78
2023-03-02T02:23:11.473Z,36.20
2023-03-02T02:29:08.959Z,41.33
2023-03-02T02:34:50.731Z,40.95
2023-03-02T02:40:18.465Z,40.17
2023-03-02T02:45:41.044Z,37.10
2023-03-02T02:51:03.125Z,36.92
2023-03-02T02:56:28.460Z,38.60
2023-03-02T03:01:51.302Z,38.28
2023-03-02T03:07:19.662Z,36.17
2023-03-02T03:12:42.531Z,33.70
2023-03-02T03:18:04.474Z,34.58
2023-03-02T03:23:26.632Z,29.35
2023-03-02T03:28:48.496Z,27.75
2023-03-02T03:34:11.033Z,27.80
2023-03-02T03:39:33.313Z,28.27
2023-03-02T03:44:55.148Z,29.65
2023-03-02T03:50:17.081Z,27.40
2023-03-02T03:55:39.020Z,27.75
2023-03-02T04:01:00.852Z,28.00
2023-03-02T04:06:22.674Z,26.08
2023-03-02T04:11:47.219Z,28.98
2023-03-02T04:17:09.107Z,30.02
2023-03-02T04:22:30.960Z,30.50
2023-03-02T04:27:53.604Z,30.08
2023-03-02T04:33:15.420Z,30.45
2023-03-02T04:38:37.262Z,30.63
2023-03-02T04:43:59.275Z,29.13
2023-03-02T04:49:21.182Z,28.50
2023-03-02T04:54:42.983Z,30.52
2023-03-02T05:00:05.348Z,28.88
2023-03-02T05:05:27.803Z,28.55
2023-03-02T05:10:49.645Z,28.33
2023-03-02T05:16:11.632Z,25.58
2023-03-02T05:21:33.988Z,24.98
2023-03-02T05:26:55.871Z,25.98
2023-03-02T05:32:17.821Z,24.92
2023-03-02T05:37:40.006Z,23.75
2023-03-02T05:43:02.349Z,23.80
2023-03-02T05:48:24.212Z,24.60
2023-03-02T05:53:46.046Z,23.05
2023-03-02T05:59:08.550Z,25.15
2023-03-02T06:04:30.585Z,25.42
2023-03-02T06:09:52.476Z,23.60
2023-03-02T06:15:14.335Z,23.83
2023-03-02T06:20:36.166Z,25.85
2023-03-02T06:25:58.632Z,27.10
2023-03-02T06:31:21.241Z,27.75
2023-03-02T06:36:43.196Z,25.63
2023-03-02T06:42:05.042Z,27.38
2023-03-02T06:47:26.892Z,28.55
2023-03-02T06:52:48.833Z,28.45
2023-03-02T06:58:10.668Z,28.00
2023-03-02T07:03:32.565Z,28.42
2023-03-02T07:08:54.582Z,27.90
2023-03-02T07:14:16.448Z,24.75
2023-03-02T07:19:40.648Z,26.98
2023-03-02T07:25:03.028Z,23.75
2023-03-02T07:30:25.729Z,24.08
2023-03-02T07:35:48.089Z,22.35
2023-03-02T07:41:10.441Z,21.63
2023-03-02T07:46:32.362Z,25.17
2023-03-02T07:51:54.302Z,26.15
2023-03-02T07:57:16.294Z,25.60
2023-03-02T08:02:40.052Z,24.45
2023-03-02T08:08:02.015Z,26.48
2023-03-02T08:13:23.837Z,24.38
2023-03-02T08:18:45.713Z,23.05
2023-03-02T08:24:07.830Z,21.75
2023-03-02T08:29:30.666Z,21.50
2023-03-02T08:34:52.555Z,21.48
2023-03-02T08:40:14.658Z,21.02
2023-03-02T08:45:36.567Z,19.98
2023-03-02T08:51:07.710Z,17.50
2023-03-02T08:56:33.182Z,14.27
2023-03-02T09:01:55.287Z,12.70
2023-03-02T09:07:17.219Z,12.82
2023-03-02T09:12:39.157Z,12.43
2023-03-02T09:18:01.048Z,5.38
2023-03-02T09:23:23.151Z,7.72
2023-03-02T09:28:45.011Z,7.05
2023-03-02T09:34:06.923Z,6.75
2023-03-02T09:39:28.808Z,7.60
2023-03-02T09:45:00.144Z,7.80
2023-03-02T09:50:34.833Z,10.95
2023-03-02T09:55:59.001Z,10.43
2023-03-02T10:01:32.675Z,9.32
2023-03-02T10:07:19.966Z,10.50
2023-03-02T10:13:19.085Z,10.77
2023-03-02T10:19:05.609Z,10.15
2023-03-02T10:24:45.792Z,13.52
2023-03-02T10:30:14.606Z,15.07
2023-03-02T10:35:37.980Z,15.18
2023-03-02T10:41:05.862Z,10.55
2023-03-02T10:46:39.655Z,12.35
2023-03-02T10:52:03.467Z,12.00
2023-03-02T10:57:34.425Z,11.48
2023-03-02T11:03:01.908Z,11.70
2023-03-02T11:08:28.559Z,10.75
2023-03-02T11:13:50.504Z,10.40
2023-03-02T11:19:17.590Z,9.70
2023-03-02T11:31:14.208Z,6.10
2023-03-02T11:36:44.237Z,8.15
2023-03-02T11:42:19.267Z,11.75
2023-03-02T11:47:57.651Z,10.00
2023-03-02T11:53:30.306Z,10.48
2023-03-02T11:58:59.691Z,10.90
2023-03-02T12:04:27.563Z,10.55
2023-03-02T12:10:04.517Z,10.60
2023-03-02T12:15:42.938Z,10.60
2023-03-02T12:21:23.259Z,9.93
2023-03-02T12:26:45.239Z,9.48
2023-03-02T12:32:13.892Z,9.18
2023-03-02T12:37:53.640Z,9.30
2023-03-02T12:43:35.100Z,9.98
2023-03-02T12:49:14.099Z,9.80
2023-03-02T12:54:36.170Z,9.65
2023-03-02T13:00:01.442Z,8.85
2023-03-02T13:05:28.810Z,9.65
2023-03-02T13:10:53.780Z,9.05
2023-03-02T13:16:41.074Z,9.48
2023-03-02T13:22:04.253Z,10.20
2023-03-02T13:27:26.897Z,10.70
2023-03-02T13:32:49.113Z,10.90
2023-03-02T13:38:17.600Z,11.30
2023-03-02T13:43:39.783Z,11.23
2023-03-02T13:49:10.376Z,10.38
2023-03-02T13:54:37.656Z,11.20
2023-03-02T14:05:24.000Z,10.88
2023-03-02T14:10:46.981Z,10.63
2023-03-02T14:16:16.504Z,10.18
2023-03-02T14:21:38.541Z,11.07
2023-03-02T14:27:00.727Z,10.00
2023-03-02T14:32:22.599Z,9.93
2023-03-02T14:37:48.473Z,10.13
2023-03-02T14:43:10.928Z,7.63
2023-03-02T14:48:32.787Z,9.38
2023-03-02T14:53:58.010Z,10.40
2023-03-02T14:59:19.955Z,10.35
2023-03-02T15:04:41.849Z,10.50
2023-03-02T15:10:04.068Z,10.35
2023-03-02T15:15:25.913Z,9.77
2023-03-02T15:20:47.790Z,11.73
2023-03-02T15:26:10.564Z,10.00
2023-03-02T15:31:32.773Z,9.73
2023-03-02T15:36:54.875Z,10.65
2023-03-02T15:42:16.694Z,10.25
2023-03-02T15:47:38.538Z,10.45
2023-03-02T15:53:00.423Z,10.52
2023-03-02T15:58:22.642Z,10.80
2023-03-02T16:03:44.715Z,10.38
2023-03-02T16:09:07.052Z,9.93
2023-03-02T16:14:28.937Z,11.23
2023-03-02T16:19:50.759Z,11.50
2023-03-02T16:25:12.623Z,12.57
2023-03-02T16:30:34.794Z,11.43
2023-03-02T16:35:56.623Z,11.73
2023-03-02T16:41:23.727Z,13.57
2023-03-02T16:46:45.753Z,14.98
2023-03-02T16:52:07.584Z,12.82
2023-03-02T16:57:29.440Z,13.38
2023-03-02T17:02:51.838Z,12.63
2023-03-02T17:08:15.372Z,13.75
2023-03-02T17:13:37.415Z,16.25
2023-03-02T17:18:59.983Z,15.18
2023-03-02T17:24:21.886Z,17.20
2023-03-02T17:29:43.799Z,15.70
2023-03-02T17:35:07.397Z,16.33
2023-03-02T17:40:29.330Z,16.65
2023-03-02T17:45:51.229Z,16.95
2023-03-02T17:51:13.267Z,15.65
2023-03-02T17:56:35.209Z,16.27
2023-03-02T18:01:57.091Z,16.92
2023-03-02T18:07:19.054Z,23.98
2023-03-02T18:12:41.025Z,20.30
2023-03-02T18:18:03.198Z,22.10
2023-03-02T18:23:25.262Z,18.23
2023-03-02T18:28:47.234Z,17.63
2023-03-02T18:34:09.222Z,18.08
2023-03-02T18:39:31.179Z,18.23
2023-03-02T18:44:53.283Z,17.48
2023-03-02T18:50:15.187Z,18.48
2023-03-02T18:55:37.130Z,19.27
2023-03-02T19:00:58.980Z,21.30
2023-03-02T19:06:22.070Z,22.05
2023-03-02T19:11:43.985Z,21.85
2023-03-02T19:17:05.830Z,22.25
2023-03-02T19:22:27.693Z,23.00
2023-03-02T19:27:49.694Z,22.98
2023-03-02T19:33:11.572Z,21.90
2023-03-02T19:38:33.445Z,21.63
2023-03-02T19:43:55.275Z,20.75
2023-03-02T19:49:17.395Z,22.60
2023-03-02T19:54:39.216Z,21.17
2023-03-02T20:00:01.037Z,22.42
2023-03-02T20:05:23.209Z,23.23
2023-03-02T20:10:46.555Z,21.83
2023-03-02T20:16:08.835Z,21.92
2023-03-02T20:21:31.678Z,23.58
2023-03-02T20:26:53.552Z,23.17
2023-03-02T20:32:16.013Z,22.83
2023-03-02T20:37:38.574Z,23.88
2023-03-02T20:43:00.463Z,23.92
2023-03-02T20:48:22.527Z,23.17
2023-03-02T20:53:44.420Z,26.25
2023-03-02T20:59:06.328Z,25.98
2023-03-02T21:04:28.274Z,26.90
2023-03-02T21:09:50.207Z,27.83
2023-03-02T21:15:12.384Z,29.92
2023-03-02T21:20:34.732Z,28.90
2023-03-02T21:25:56.691Z,31.08
2023-03-02T21:31:18.628Z,29.88
2023-03-02T21:36:41.961Z,31.77
2023-03-02T21:42:03.966Z,31.45
2023-03-02T21:47:25.811Z,30.20
2023-03-02T21:52:47.935Z,31.60
2023-03-02T21:58:10.469Z,32.78
2023-03-02T22:03:32.319Z,32.30
2023-03-02T22:08:55.122Z,33.80
2023-03-02T22:14:17.775Z,33.70
2023-03-02T22:19:43.031Z,32.15
2023-03-02T22:25:14.516Z,34.45
2023-03-02T22:30:36.340Z,33.05
2023-03-02T22:36:11.655Z,34.90
2023-03-02T22:41:33.636Z,32.95
2023-03-02T22:46:56.096Z,32.17
2023-03-02T22:52:23.812Z,33.08
2023-03-02T22:57:45.704Z,32.30
2023-03-02T23:03:44.288Z,30.83
2023-03-02T23:09:06.690Z,31.45
2023-03-02T23:14:52.939Z,31.38
2023-03-02T23:20:16.179Z,30.98
2023-03-02T23:25:38.053Z,33.53
2023-03-02T23:30:59.901Z,32.17
2023-03-02T23:36:21.813Z,33.90
2023-03-02T23:41:43.706Z,33.75
2023-03-02T23:47:05.647Z,32.70
2023-03-02T23:52:27.490Z,32.90
2023-03-02T23:57:49.389Z,33.88
